createdAt,value
2022-08-03T00:00:58.935Z,22.26
2022-08-03T00:01:58.880Z,22.30
2022-08-03T00:02:58.944Z,22.26
2022-08-03T00:03:58.858Z,22.25
2022-08-03T00:04:58.989Z,22.25
2022-08-03T00:06:04.635Z,22.23
2022-08-03T00:06:59.807Z,22.22
2022-08-03T00:07:58.790Z,22.21
2022-08-03T00:08:58.788Z,22.21
2022-08-03T00:09:58.768Z,22.19
2022-08-03T00:10:58.760Z,22.18
2022-08-03T00:11:58.769Z,22.16
2022-08-03T00:12:58.811Z,22.15
2022-08-03T00:13:58.761Z,22.15
2022-08-03T00:14:58.728Z,22.14
2022-08-03T00:15:58.740Z,22.12
2022-08-03T00:16:58.737Z,22.12
2022-08-03T00:17:58.728Z,22.12
2022-08-03T00:18:58.709Z,22.10
2022-08-03T00:19:58.678Z,22.07
2022-08-03T00:20:58.672Z,22.06
2022-08-03T00:21:58.679Z,22.07
2022-08-03T00:22:58.683Z,22.04
2022-08-03T00:23:58.631Z,22.06
2022-08-03T00:24:58.638Z,22.03
2022-08-03T00:25:58.619Z,22.03
2022-08-03T00:26:58.643Z,22.01
2022-08-03T00:27:58.609Z,22.00
2022-08-03T00:28:58.580Z,21.97
2022-08-03T00:30:00.314Z,21.99
2022-08-03T00:30:58.580Z,21.97
2022-08-03T00:31:59.602Z,21.96
2022-08-03T00:32:58.530Z,21.92
2022-08-03T00:34:02.234Z,21.94
2022-08-03T00:34:59.232Z,21.92
2022-08-03T00:35:58.489Z,21.92
2022-08-03T00:36:58.494Z,21.91
2022-08-03T00:37:58.480Z,21.89
2022-08-03T00:38:58.485Z,21.88
2022-08-03T00:39:59.830Z,21.89
2022-08-03T00:40:58.433Z,21.84
2022-08-03T00:41:58.437Z,21.85
2022-08-03T00:42:58.473Z,21.84
2022-08-03T00:43:58.403Z,21.83
2022-08-03T00:44:58.394Z,21.81
2022-08-03T00:45:58.381Z,21.81
2022-08-03T00:46:58.384Z,21.81
2022-08-03T00:47:58.391Z,21.80
2022-08-03T00:48:58.420Z,21.78
2022-08-03T00:49:58.432Z,21.80
2022-08-03T00:50:58.396Z,21.77
2022-08-03T00:51:58.353Z,21.75
2022-08-03T00:52:58.314Z,21.72
2022-08-03T00:53:58.293Z,21.72
2022-08-03T00:54:58.302Z,21.72
2022-08-03T00:55:58.293Z,21.72
2022-08-03T00:57:00.301Z,21.70
2022-08-03T00:57:58.362Z,21.70
2022-08-03T00:58:58.232Z,21.68
2022-08-03T00:59:58.232Z,21.69
2022-08-03T01:00:58.286Z,21.66
2022-08-03T01:01:58.233Z,21.68
2022-08-03T01:02:58.222Z,21.63
2022-08-03T01:03:58.173Z,21.65
2022-08-03T01:04:58.183Z,21.63
2022-08-03T01:05:58.193Z,21.63
2022-08-03T01:06:58.193Z,21.62
2022-08-03T01:07:58.245Z,21.60
2022-08-03T01:08:58.554Z,21.60
2022-08-03T01:09:58.139Z,21.59
2022-08-03T01:10:58.083Z,21.59
2022-08-03T01:12:01.016Z,21.58
2022-08-03T01:12:58.113Z,21.56
2022-08-03T01:14:04.611Z,21.56
2022-08-03T01:14:59.064Z,21.54
2022-08-03T01:15:58.054Z,21.54
2022-08-03T01:16:58.063Z,21.53
2022-08-03T01:17:58.163Z,21.53
2022-08-03T01:18:58.498Z,21.53
2022-08-03T01:19:58.013Z,21.50
2022-08-03T01:20:58.100Z,21.50
2022-08-03T01:21:58.005Z,21.51
2022-08-03T01:22:58.015Z,21.48
2022-08-03T01:23:58.007Z,21.48
2022-08-03T01:24:57.975Z,21.47
2022-08-03T01:25:57.935Z,21.47
2022-08-03T01:26:57.943Z,21.45
2022-08-03T01:27:57.947Z,21.45
2022-08-03T01:28:57.926Z,21.43
2022-08-03T01:29:57.895Z,21.43
2022-08-03T01:30:57.905Z,21.41
2022-08-03T01:32:58.410Z,21.44
2022-08-03T01:33:01.867Z,21.41
2022-08-03T01:33:57.872Z,21.41
2022-08-03T01:34:57.855Z,21.41
2022-08-03T01:35:57.854Z,21.40
2022-08-03T01:36:57.815Z,21.40
2022-08-03T01:37:57.814Z,21.41
2022-08-03T01:38:57.822Z,21.38
2022-08-03T01:39:57.828Z,21.38
2022-08-03T01:40:57.798Z,21.38
2022-08-03T01:41:57.775Z,21.37
2022-08-03T01:42:57.782Z,21.33
2022-08-03T01:44:29.760Z,21.35
2022-08-03T01:44:58.745Z,21.35
2022-08-03T01:45:57.735Z,21.35
2022-08-03T01:46:57.735Z,21.33
2022-08-03T01:47:57.696Z,21.33
2022-08-03T01:48:57.753Z,21.33
2022-08-03T01:49:57.686Z,21.32
2022-08-03T01:50:57.687Z,21.32
2022-08-03T01:52:02.919Z,21.30
2022-08-03T01:52:58.665Z,21.30
2022-08-03T01:53:57.655Z,21.30
2022-08-03T01:54:57.635Z,21.29
2022-08-03T01:55:57.627Z,21.26
2022-08-03T01:56:57.634Z,21.26
2022-08-03T01:58:05.785Z,21.29
2022-08-03T01:58:58.587Z,21.26
2022-08-03T01:59:57.575Z,21.26
2022-08-03T02:00:57.615Z,21.23
2022-08-03T02:02:28.326Z,21.25
2022-08-03T02:02:58.565Z,21.23
2022-08-03T02:04:00.485Z,21.22
2022-08-03T02:04:57.546Z,21.20
2022-08-03T02:06:40.958Z,21.23
2022-08-03T02:07:01.944Z,21.20
2022-08-03T02:07:57.493Z,21.20
2022-08-03T02:08:57.509Z,21.20
2022-08-03T02:09:57.469Z,21.17
2022-08-03T02:10:57.496Z,21.17
2022-08-03T02:11:57.448Z,21.15
2022-08-03T02:12:57.445Z,21.14
2022-08-03T02:13:57.420Z,21.14
2022-08-03T02:14:57.397Z,21.15
2022-08-03T02:15:57.397Z,21.13
2022-08-03T02:16:57.387Z,21.11
2022-08-03T02:17:57.380Z,21.13
2022-08-03T02:18:57.367Z,21.10
2022-08-03T02:19:57.355Z,21.11
2022-08-03T02:20:57.347Z,21.08
2022-08-03T02:22:01.125Z,21.10
2022-08-03T02:22:57.330Z,21.08
2022-08-03T02:23:57.326Z,21.07
2022-08-03T02:24:57.307Z,21.05
2022-08-03T02:25:57.296Z,21.05
2022-08-03T02:26:57.290Z,21.04
2022-08-03T02:27:57.537Z,21.04
2022-08-03T02:28:57.235Z,21.03
2022-08-03T02:29:57.227Z,21.01
2022-08-03T02:30:57.227Z,21.01
2022-08-03T02:31:57.238Z,21.01
2022-08-03T02:32:57.227Z,21.00
2022-08-03T02:33:57.218Z,20.98
2022-08-03T02:34:57.206Z,20.96
2022-08-03T02:35:57.169Z,20.96
2022-08-03T02:36:57.170Z,20.95
2022-08-03T02:37:57.177Z,20.95
2022-08-03T02:38:57.189Z,20.93
2022-08-03T02:39:57.129Z,20.93
2022-08-03T02:40:57.136Z,20.90
2022-08-03T02:41:57.110Z,20.90
2022-08-03T02:42:57.648Z,20.90
2022-08-03T02:44:06.044Z,20.89
2022-08-03T02:44:58.068Z,20.88
2022-08-03T02:45:57.048Z,20.89
2022-08-03T02:46:57.072Z,20.86
2022-08-03T02:47:57.056Z,20.86
2022-08-03T02:48:57.093Z,20.86
2022-08-03T02:49:57.094Z,20.83
2022-08-03T02:50:57.041Z,20.82
2022-08-03T02:51:57.005Z,20.83
2022-08-03T02:52:57.011Z,20.82
2022-08-03T02:53:57.004Z,20.80
2022-08-03T02:54:56.983Z,20.78
2022-08-03T02:55:56.949Z,20.77
2022-08-03T02:56:56.939Z,20.78
2022-08-03T02:57:57.138Z,20.77
2022-08-03T02:58:56.923Z,20.78
2022-08-03T02:59:56.928Z,20.77
2022-08-03T03:00:56.974Z,20.74
2022-08-03T03:01:56.870Z,20.74
2022-08-03T03:02:56.852Z,20.73
2022-08-03T03:03:56.849Z,20.73
2022-08-03T03:05:53.266Z,20.70
2022-08-03T03:05:57.972Z,20.71
2022-08-03T03:06:56.819Z,20.71
2022-08-03T03:07:56.838Z,20.70
2022-08-03T03:08:59.797Z,20.67
2022-08-03T03:09:56.799Z,20.68
2022-08-03T03:10:56.811Z,20.67
2022-08-03T03:11:56.770Z,20.67
2022-08-03T03:12:56.858Z,20.67
2022-08-03T03:13:56.749Z,20.64
2022-08-03T03:14:56.769Z,20.66
2022-08-03T03:15:56.740Z,20.64
2022-08-03T03:16:57.856Z,20.63
2022-08-03T03:17:56.690Z,20.64
2022-08-03T03:18:56.682Z,20.63
2022-08-03T03:19:56.681Z,20.59
2022-08-03T03:20:56.680Z,20.60
2022-08-03T03:21:56.661Z,20.59
2022-08-03T03:22:56.650Z,20.59
2022-08-03T03:23:56.660Z,20.58
2022-08-03T03:24:56.641Z,20.56
2022-08-03T03:25:56.621Z,20.56
2022-08-03T03:26:56.610Z,20.56
2022-08-03T03:27:56.613Z,20.55
2022-08-03T03:28:56.582Z,20.53
2022-08-03T03:29:56.602Z,20.55
2022-08-03T03:30:56.563Z,20.52
2022-08-03T03:31:56.551Z,20.52
2022-08-03T03:32:56.520Z,20.52
2022-08-03T03:33:56.509Z,20.52
2022-08-03T03:34:56.521Z,20.50
2022-08-03T03:35:56.489Z,20.49
2022-08-03T03:36:56.482Z,20.49
2022-08-03T03:37:56.451Z,20.49
2022-08-03T03:38:56.481Z,20.48
2022-08-03T03:39:56.470Z,20.46
2022-08-03T03:40:56.429Z,20.42
2022-08-03T03:41:56.419Z,20.46
2022-08-03T03:42:56.421Z,20.44
2022-08-03T03:43:56.392Z,20.42
2022-08-03T03:44:56.402Z,20.40
2022-08-03T03:45:56.371Z,20.40
2022-08-03T03:46:56.382Z,20.40
2022-08-03T03:47:56.351Z,20.40
2022-08-03T03:48:56.367Z,20.40
2022-08-03T03:49:56.354Z,20.39
2022-08-03T03:50:56.341Z,20.39
2022-08-03T03:51:56.333Z,20.39
2022-08-03T03:52:56.339Z,20.37
2022-08-03T03:53:56.322Z,20.37
2022-08-03T03:55:00.682Z,20.37
2022-08-03T03:55:58.926Z,20.37
2022-08-03T03:56:57.278Z,20.36
2022-08-03T03:57:56.260Z,20.36
2022-08-03T03:58:56.247Z,20.34
2022-08-03T03:59:56.272Z,20.36
2022-08-03T04:00:56.269Z,20.36
2022-08-03T04:01:59.112Z,20.34
2022-08-03T04:02:56.184Z,20.34
2022-08-03T04:03:56.171Z,20.34
2022-08-03T04:04:56.194Z,20.33
2022-08-03T04:05:56.162Z,20.36
2022-08-03T04:06:56.163Z,20.36
2022-08-03T04:07:56.176Z,20.34
2022-08-03T04:08:56.142Z,20.36
2022-08-03T04:09:56.123Z,20.36
2022-08-03T04:10:56.102Z,20.37
2022-08-03T04:11:56.236Z,20.36
2022-08-03T04:12:56.084Z,20.36
2022-08-03T04:13:56.062Z,20.36
2022-08-03T04:14:57.062Z,20.37
2022-08-03T04:15:56.043Z,20.39
2022-08-03T04:16:56.260Z,20.37
2022-08-03T04:17:56.042Z,20.39
2022-08-03T04:18:56.001Z,20.39
2022-08-03T04:19:56.022Z,20.39
2022-08-03T04:20:56.028Z,20.37
2022-08-03T04:21:57.155Z,20.40
2022-08-03T04:22:55.965Z,20.40
2022-08-03T04:23:55.970Z,20.39
2022-08-03T04:24:55.957Z,20.40
2022-08-03T04:25:55.963Z,20.40
2022-08-03T04:26:55.935Z,20.40
2022-08-03T04:28:08.125Z,20.42
2022-08-03T04:28:56.914Z,20.42
2022-08-03T04:29:55.921Z,20.42
2022-08-03T04:30:55.897Z,20.42
2022-08-03T04:31:55.887Z,20.42
2022-08-03T04:32:55.864Z,20.42
2022-08-03T04:33:55.843Z,20.44
2022-08-03T04:34:55.837Z,20.42
2022-08-03T04:36:01.341Z,20.44
2022-08-03T04:36:56.797Z,20.46
2022-08-03T04:37:55.795Z,20.48
2022-08-03T04:38:55.795Z,20.44
2022-08-03T04:39:57.673Z,20.48
2022-08-03T04:40:55.787Z,20.46
2022-08-03T04:42:06.908Z,20.48
2022-08-03T04:42:56.754Z,20.48
2022-08-03T04:43:55.750Z,20.48
2022-08-03T04:45:00.823Z,20.49
2022-08-03T04:45:56.735Z,20.49
2022-08-03T04:46:55.714Z,20.50
2022-08-03T04:47:55.757Z,20.52
2022-08-03T04:48:55.775Z,20.50
2022-08-03T04:49:55.734Z,20.52
2022-08-03T04:50:55.716Z,20.53
2022-08-03T04:51:55.689Z,20.53
2022-08-03T04:52:55.659Z,20.53
2022-08-03T04:53:55.644Z,20.55
2022-08-03T04:54:55.618Z,20.55
2022-08-03T04:55:55.642Z,20.55
2022-08-03T04:56:55.607Z,20.56
2022-08-03T04:57:55.618Z,20.58
2022-08-03T04:58:55.608Z,20.58
2022-08-03T05:00:02.203Z,20.60
2022-08-03T05:00:56.593Z,20.59
2022-08-03T05:01:55.660Z,20.63
2022-08-03T05:02:55.615Z,20.63
2022-08-03T05:03:55.519Z,20.66
2022-08-03T05:04:55.525Z,20.66
2022-08-03T05:06:09.538Z,20.66
2022-08-03T05:06:56.476Z,20.68
2022-08-03T05:07:55.507Z,20.70
2022-08-03T05:08:55.457Z,20.70
2022-08-03T05:10:01.685Z,20.70
2022-08-03T05:10:59.059Z,20.73
2022-08-03T05:11:55.447Z,20.74
2022-08-03T05:12:55.441Z,20.75
2022-08-03T05:13:55.417Z,20.77
2022-08-03T05:14:55.397Z,20.78
2022-08-03T05:15:55.405Z,20.77
2022-08-03T05:16:55.389Z,20.82
2022-08-03T05:17:55.390Z,20.83
2022-08-03T05:18:55.390Z,20.85
2022-08-03T05:19:55.408Z,20.88
2022-08-03T05:20:55.338Z,20.86
2022-08-03T05:21:55.316Z,20.90
2022-08-03T05:22:55.290Z,20.93
2022-08-03T05:23:55.315Z,20.95
2022-08-03T05:24:55.336Z,21.00
2022-08-03T05:25:55.277Z,21.01
2022-08-03T05:26:55.263Z,21.05
2022-08-03T05:27:55.552Z,21.07
2022-08-03T05:28:55.209Z,21.10
2022-08-03T05:29:55.200Z,21.14
2022-08-03T05:30:55.198Z,21.19
2022-08-03T05:31:55.211Z,21.23
2022-08-03T05:32:55.184Z,21.26
2022-08-03T05:33:55.158Z,21.29
2022-08-03T05:34:55.158Z,21.35
2022-08-03T05:36:01.622Z,21.38
2022-08-03T05:36:56.137Z,21.44
2022-08-03T05:37:55.134Z,21.48
2022-08-03T05:38:56.783Z,21.51
2022-08-03T05:39:55.131Z,21.56
2022-08-03T05:40:57.672Z,21.59
2022-08-03T05:41:56.086Z,21.63
2022-08-03T05:42:55.264Z,21.70
2022-08-03T05:43:55.069Z,21.78
2022-08-03T05:44:55.030Z,21.85
2022-08-03T05:46:11.438Z,21.94
2022-08-03T05:46:56.520Z,22.03
2022-08-03T05:47:55.048Z,22.12
2022-08-03T05:48:55.097Z,22.19
2022-08-03T05:49:55.010Z,22.31
2022-08-03T05:50:55.010Z,22.41
2022-08-03T05:51:59.945Z,22.55
2022-08-03T05:52:55.979Z,22.68
2022-08-03T05:53:54.955Z,22.81
2022-08-03T05:54:56.012Z,22.93
2022-08-03T05:55:59.228Z,23.07
2022-08-03T05:56:55.921Z,23.21
2022-08-03T05:57:55.294Z,23.40
2022-08-03T05:58:54.885Z,23.52
2022-08-03T05:59:57.764Z,23.66
2022-08-03T06:00:54.892Z,23.74
2022-08-03T06:01:54.910Z,23.89
2022-08-03T06:02:54.860Z,23.99
2022-08-03T06:03:54.845Z,24.10
2022-08-03T06:04:54.835Z,24.19
2022-08-03T06:05:59.975Z,24.34
2022-08-03T06:06:55.926Z,24.44
2022-08-03T06:07:54.811Z,24.58
2022-08-03T06:08:54.831Z,24.74
2022-08-03T06:10:35.310Z,24.92
2022-08-03T06:10:55.991Z,25.07
2022-08-03T06:11:54.794Z,25.25
2022-08-03T06:12:54.788Z,25.41
2022-08-03T06:13:54.835Z,25.59
2022-08-03T06:14:54.793Z,25.80
2022-08-03T06:15:54.894Z,25.99
2022-08-03T06:16:54.943Z,26.18
2022-08-03T06:17:57.631Z,26.36
2022-08-03T06:18:55.793Z,26.52
2022-08-03T06:19:54.694Z,26.70
2022-08-03T06:20:55.117Z,26.83
2022-08-03T06:21:54.653Z,26.98
2022-08-03T06:23:00.189Z,27.05
2022-08-03T06:23:55.768Z,27.19
2022-08-03T06:24:54.743Z,27.29
2022-08-03T06:25:54.595Z,27.43
2022-08-03T06:26:54.576Z,27.57
2022-08-03T06:27:54.633Z,27.67
2022-08-03T06:28:54.942Z,27.81
2022-08-03T06:29:54.562Z,27.95
2022-08-03T06:30:54.616Z,28.06
2022-08-03T06:31:54.585Z,28.20
2022-08-03T06:32:54.591Z,28.31
2022-08-03T06:34:33.714Z,28.45
2022-08-03T06:34:55.521Z,28.56
2022-08-03T06:35:54.609Z,28.68
2022-08-03T06:36:57.433Z,28.78
2022-08-03T06:37:55.494Z,28.92
2022-08-03T06:38:54.466Z,29.05
2022-08-03T06:39:54.442Z,29.18
2022-08-03T06:40:54.416Z,29.28
2022-08-03T06:41:54.408Z,29.39
2022-08-03T06:42:54.415Z,29.52
2022-08-03T06:44:03.782Z,29.62
2022-08-03T06:44:55.387Z,29.74
2022-08-03T06:45:54.441Z,29.83
2022-08-03T06:46:54.404Z,29.92
2022-08-03T06:47:54.358Z,30.03
2022-08-03T06:48:54.406Z,30.14
2022-08-03T06:50:16.497Z,30.26
2022-08-03T06:50:55.329Z,30.38
2022-08-03T06:52:06.209Z,30.49
2022-08-03T06:52:55.339Z,30.61
2022-08-03T06:53:54.340Z,30.73
2022-08-03T06:54:54.308Z,30.81
2022-08-03T06:55:55.158Z,30.86
2022-08-03T06:56:54.298Z,30.88
2022-08-03T06:57:54.279Z,30.91
2022-08-03T06:58:55.288Z,30.93
2022-08-03T07:00:08.707Z,30.95
2022-08-03T07:00:55.234Z,30.98
2022-08-03T07:01:54.600Z,31.02
2022-08-03T07:02:58.118Z,31.08
2022-08-03T07:03:54.181Z,31.14
2022-08-03T07:04:54.180Z,31.22
2022-08-03T07:05:54.161Z,31.30
2022-08-03T07:06:54.130Z,31.41
2022-08-03T07:07:54.191Z,31.48
2022-08-03T07:08:58.979Z,31.55
2022-08-03T07:09:56.875Z,31.62
2022-08-03T07:10:54.111Z,31.66
2022-08-03T07:11:54.138Z,31.70
2022-08-03T07:12:55.698Z,31.73
2022-08-03T07:13:54.282Z,31.74
2022-08-03T07:14:58.220Z,31.73
2022-08-03T07:15:56.321Z,31.74
2022-08-03T07:16:54.123Z,31.77
2022-08-03T07:17:54.103Z,31.79
2022-08-03T07:18:54.094Z,31.81
2022-08-03T07:19:54.089Z,31.82
2022-08-03T07:20:54.103Z,31.82
2022-08-03T07:21:54.033Z,31.87
2022-08-03T07:22:54.063Z,31.90
2022-08-03T07:23:54.088Z,31.95
2022-08-03T07:24:54.004Z,32.01
2022-08-03T07:25:54.004Z,32.09
2022-08-03T07:26:54.044Z,32.19
2022-08-03T07:27:54.014Z,32.26
2022-08-03T07:28:53.943Z,32.37
2022-08-03T07:29:54.063Z,32.46
2022-08-03T07:30:53.917Z,32.56
2022-08-03T07:31:53.918Z,32.66
2022-08-03T07:32:53.884Z,32.78
2022-08-03T07:33:53.937Z,32.86
2022-08-03T07:34:59.898Z,32.98
2022-08-03T07:35:54.893Z,33.09
2022-08-03T07:36:53.827Z,33.17
2022-08-03T07:37:54.488Z,33.28
2022-08-03T07:38:53.827Z,33.33
2022-08-03T07:39:53.821Z,33.44
2022-08-03T07:40:53.839Z,33.51
2022-08-03T07:41:53.806Z,33.57
2022-08-03T07:42:53.839Z,33.61
2022-08-03T07:43:53.767Z,33.67
2022-08-03T07:44:53.767Z,33.72
2022-08-03T07:45:53.817Z,33.77
2022-08-03T07:46:53.757Z,33.85
2022-08-03T07:47:54.245Z,33.92
2022-08-03T07:48:53.731Z,34.02
2022-08-03T07:49:54.085Z,34.10
2022-08-03T07:50:54.090Z,34.18
2022-08-03T07:51:53.680Z,34.28
2022-08-03T07:52:53.789Z,34.38
2022-08-03T07:53:53.690Z,34.50
2022-08-03T07:54:53.661Z,34.60
2022-08-03T07:55:53.690Z,34.69
2022-08-03T07:56:53.620Z,34.78
2022-08-03T07:57:53.659Z,34.83
2022-08-03T07:58:53.662Z,34.89
2022-08-03T08:00:01.897Z,34.94
2022-08-03T08:00:54.649Z,34.94
2022-08-03T08:01:53.630Z,34.93
2022-08-03T08:02:53.636Z,34.93
2022-08-03T08:03:53.870Z,34.94
2022-08-03T08:04:53.633Z,34.98
2022-08-03T08:05:53.550Z,35.08
2022-08-03T08:06:53.605Z,35.19
2022-08-03T08:07:53.523Z,35.27
2022-08-03T08:08:53.620Z,35.38
2022-08-03T08:09:53.479Z,35.50
2022-08-03T08:10:58.294Z,35.59
2022-08-03T08:11:54.460Z,35.66
2022-08-03T08:12:53.493Z,35.69
2022-08-03T08:13:53.433Z,35.75
2022-08-03T08:14:53.422Z,35.82
2022-08-03T08:15:53.444Z,35.88
2022-08-03T08:16:53.431Z,35.93
2022-08-03T08:17:53.444Z,35.96
2022-08-03T08:18:53.432Z,35.98
2022-08-03T08:19:53.611Z,36.05
2022-08-03T08:20:53.392Z,36.11
2022-08-03T08:22:02.104Z,36.18
2022-08-03T08:22:54.377Z,36.29
2022-08-03T08:23:57.794Z,36.44
2022-08-03T08:24:53.343Z,36.55
2022-08-03T08:25:53.326Z,36.70
2022-08-03T08:26:53.349Z,36.84
2022-08-03T08:28:29.927Z,36.92
2022-08-03T08:28:54.333Z,36.97
2022-08-03T08:29:55.766Z,37.01
2022-08-03T08:30:54.278Z,37.00
2022-08-03T08:31:53.275Z,37.03
2022-08-03T08:32:53.357Z,37.03
2022-08-03T08:34:08.734Z,37.00
2022-08-03T08:34:54.484Z,36.99
2022-08-03T08:35:53.305Z,37.00
2022-08-03T08:36:53.287Z,36.96
2022-08-03T08:37:53.225Z,36.94
2022-08-03T08:38:53.243Z,36.88
2022-08-03T08:39:53.189Z,36.84
2022-08-03T08:40:53.197Z,36.80
2022-08-03T08:41:53.454Z,36.78
2022-08-03T08:43:00.434Z,36.78
2022-08-03T08:43:59.841Z,36.84
2022-08-03T08:44:54.161Z,36.89
2022-08-03T08:45:53.189Z,37.01
2022-08-03T08:46:53.688Z,37.10
2022-08-03T08:47:55.765Z,37.26
2022-08-03T08:48:54.310Z,37.44
2022-08-03T08:50:08.905Z,37.67
2022-08-03T08:50:54.101Z,37.82
2022-08-03T08:52:00.852Z,38.04
2022-08-03T08:52:54.032Z,38.16
2022-08-03T08:53:53.041Z,38.19
2022-08-03T08:54:53.070Z,38.25
2022-08-03T08:55:58.255Z,38.32
2022-08-03T08:56:54.041Z,38.36
2022-08-03T08:57:53.139Z,38.51
2022-08-03T08:58:53.000Z,38.58
2022-08-03T08:59:57.172Z,38.65
2022-08-03T09:00:53.027Z,38.69
2022-08-03T09:01:52.946Z,38.76
2022-08-03T09:02:52.921Z,38.77
2022-08-03T09:03:52.922Z,38.76
2022-08-03T09:04:52.922Z,38.85
2022-08-03T09:05:55.918Z,38.92
2022-08-03T09:07:17.758Z,39.03
2022-08-03T09:07:53.872Z,39.14
2022-08-03T09:08:52.902Z,39.23
2022-08-03T09:10:11.152Z,39.25
2022-08-03T09:10:53.889Z,39.25
2022-08-03T09:12:01.052Z,39.27
2022-08-03T09:12:53.896Z,39.27
2022-08-03T09:13:52.865Z,39.26
2022-08-03T09:15:14.829Z,39.25
2022-08-03T09:16:01.286Z,39.26
2022-08-03T09:16:53.832Z,39.30
2022-08-03T09:17:52.804Z,39.30
2022-08-03T09:18:52.827Z,39.32
2022-08-03T09:20:03.290Z,39.34
2022-08-03T09:20:53.775Z,39.34
2022-08-03T09:21:52.765Z,39.39
2022-08-03T09:22:52.808Z,39.39
2022-08-03T09:24:02.398Z,39.37
2022-08-03T09:25:14.759Z,39.33
2022-08-03T09:25:53.716Z,39.30
2022-08-03T09:26:53.795Z,39.27
2022-08-03T09:27:53.493Z,39.22
2022-08-03T09:29:01.275Z,39.12
2022-08-03T09:29:53.706Z,39.05
2022-08-03T09:30:52.677Z,38.92
2022-08-03T09:31:52.667Z,38.75
2022-08-03T09:32:52.629Z,38.57
2022-08-03T09:33:52.648Z,38.51
2022-08-03T09:34:56.546Z,38.46
2022-08-03T09:35:54.840Z,38.46
2022-08-03T09:36:52.642Z,38.44
2022-08-03T09:38:12.466Z,38.44
2022-08-03T09:38:53.623Z,38.44
2022-08-03T09:39:52.627Z,38.38
2022-08-03T09:40:57.332Z,38.31
2022-08-03T09:41:53.583Z,38.25
2022-08-03T09:42:52.840Z,38.27
2022-08-03T09:43:52.529Z,38.20
2022-08-03T09:44:52.575Z,38.17
2022-08-03T09:45:52.499Z,38.12
2022-08-03T09:46:52.493Z,38.07
2022-08-03T09:47:52.468Z,38.04
2022-08-03T09:48:52.552Z,37.95
2022-08-03T09:49:52.474Z,37.88
2022-08-03T09:50:57.161Z,37.78
2022-08-03T09:52:33.873Z,37.72
2022-08-03T09:52:53.429Z,37.64
2022-08-03T09:53:59.495Z,37.57
2022-08-03T09:54:53.452Z,37.53
2022-08-03T09:56:36.494Z,37.50
2022-08-03T09:56:53.402Z,37.58
2022-08-03T09:57:52.417Z,37.68
2022-08-03T09:58:52.384Z,37.80
2022-08-03T10:00:03.088Z,37.88
2022-08-03T10:00:53.425Z,37.91
2022-08-03T10:01:52.374Z,37.97
2022-08-03T10:02:52.313Z,38.02
2022-08-03T10:04:04.379Z,38.10
2022-08-03T10:04:53.308Z,38.14
2022-08-03T10:05:56.055Z,38.25
2022-08-03T10:06:53.275Z,38.28
2022-08-03T10:07:52.274Z,38.28
2022-08-03T10:08:52.300Z,38.27
2022-08-03T10:09:52.297Z,38.32
2022-08-03T10:10:52.336Z,38.31
2022-08-03T10:11:52.287Z,38.39
2022-08-03T10:12:52.257Z,38.47
2022-08-03T10:13:52.204Z,38.56
2022-08-03T10:14:53.248Z,38.65
2022-08-03T10:16:22.134Z,38.68
2022-08-03T10:16:53.196Z,38.76
2022-08-03T10:17:52.204Z,38.90
2022-08-03T10:18:52.157Z,38.96
2022-08-03T10:19:52.180Z,39.14
2022-08-03T10:20:52.148Z,39.32
2022-08-03T10:21:52.107Z,39.52
2022-08-03T10:22:52.115Z,39.70
2022-08-03T10:23:52.110Z,39.89
2022-08-03T10:24:52.118Z,40.07
2022-08-03T10:25:52.098Z,40.20
2022-08-03T10:26:52.109Z,40.42
2022-08-03T10:27:52.109Z,40.67
2022-08-03T10:28:52.073Z,40.88
2022-08-03T10:29:52.056Z,41.08
2022-08-03T10:30:52.046Z,41.24
2022-08-03T10:31:57.819Z,41.37
2022-08-03T10:32:53.002Z,41.52
2022-08-03T10:33:53.136Z,41.73
2022-08-03T10:34:52.000Z,41.83
2022-08-03T10:35:52.991Z,41.95
2022-08-03T10:36:51.994Z,42.05
2022-08-03T10:37:56.984Z,42.27
2022-08-03T10:38:53.509Z,42.46
2022-08-03T10:39:51.983Z,42.70
2022-08-03T10:40:57.164Z,42.92
2022-08-03T10:41:52.961Z,43.02
2022-08-03T10:42:51.963Z,43.00
2022-08-03T10:43:51.932Z,42.74
2022-08-03T10:44:51.935Z,42.53
2022-08-03T10:45:51.911Z,42.33
2022-08-03T10:46:51.922Z,42.15
2022-08-03T10:47:51.881Z,42.03
2022-08-03T10:48:51.875Z,42.05
2022-08-03T10:49:51.929Z,42.15
2022-08-03T10:50:52.580Z,42.24
2022-08-03T10:51:54.266Z,42.28
2022-08-03T10:52:51.824Z,42.18
2022-08-03T10:53:55.426Z,42.15
2022-08-03T10:54:51.845Z,42.14
2022-08-03T10:55:51.798Z,42.18
2022-08-03T10:56:51.823Z,42.14
2022-08-03T10:57:52.442Z,42.14
2022-08-03T10:58:57.077Z,42.21
2022-08-03T10:59:52.795Z,42.34
2022-08-03T11:00:51.806Z,42.34
2022-08-03T11:01:58.509Z,42.36
2022-08-03T11:02:52.740Z,42.33
2022-08-03T11:03:51.726Z,42.28
2022-08-03T11:04:51.746Z,42.32
2022-08-03T11:05:51.729Z,42.34
2022-08-03T11:06:51.677Z,42.36
2022-08-03T11:07:54.605Z,42.49
2022-08-03T11:08:51.694Z,42.62
2022-08-03T11:09:51.689Z,42.63
2022-08-03T11:10:51.668Z,42.58
2022-08-03T11:11:51.739Z,42.43
2022-08-03T11:12:51.638Z,42.27
2022-08-03T11:13:51.708Z,42.18
2022-08-03T11:14:51.828Z,42.09
2022-08-03T11:15:51.691Z,42.05
2022-08-03T11:16:51.649Z,41.98
2022-08-03T11:17:56.118Z,41.81
2022-08-03T11:18:52.543Z,41.71
2022-08-03T11:19:56.552Z,41.76
2022-08-03T11:20:52.531Z,41.83
2022-08-03T11:21:51.503Z,41.90
2022-08-03T11:22:51.510Z,41.93
2022-08-03T11:24:02.868Z,41.96
2022-08-03T11:24:52.541Z,41.96
2022-08-03T11:25:54.649Z,41.99
2022-08-03T11:26:51.495Z,42.09
2022-08-03T11:27:51.481Z,42.21
2022-08-03T11:28:51.457Z,42.28
2022-08-03T11:29:51.431Z,42.39
2022-08-03T11:30:51.466Z,42.62
2022-08-03T11:31:51.988Z,42.90
2022-08-03T11:32:51.404Z,43.14
2022-08-03T11:33:51.430Z,43.03
2022-08-03T11:34:51.382Z,42.89
2022-08-03T11:35:51.373Z,43.11
2022-08-03T11:36:51.354Z,43.49
2022-08-03T11:38:03.557Z,43.85
2022-08-03T11:38:52.353Z,44.04
2022-08-03T11:39:51.342Z,44.00
2022-08-03T11:40:51.343Z,44.19
2022-08-03T11:41:51.344Z,44.19
2022-08-03T11:42:51.330Z,44.11
2022-08-03T11:43:51.326Z,44.03
2022-08-03T11:44:51.324Z,43.99
2022-08-03T11:45:51.316Z,43.89
2022-08-03T11:46:51.346Z,43.88
2022-08-03T11:47:51.624Z,44.00
2022-08-03T11:48:51.321Z,44.11
2022-08-03T11:49:51.266Z,44.26
2022-08-03T11:50:51.526Z,44.53
2022-08-03T11:51:51.234Z,44.77
2022-08-03T11:52:51.220Z,44.82
2022-08-03T11:53:51.274Z,45.08
2022-08-03T11:54:51.263Z,45.18
2022-08-03T11:55:52.228Z,45.61
2022-08-03T11:56:51.211Z,46.24
2022-08-03T11:59:13.191Z,46.85
2022-08-03T11:59:18.963Z,47.21
2022-08-03T11:59:52.158Z,47.45
2022-08-03T12:00:51.178Z,47.74
2022-08-03T12:01:51.166Z,47.72
2022-08-03T12:02:51.241Z,47.51
2022-08-03T12:03:51.157Z,47.23
2022-08-03T12:04:51.118Z,47.31
2022-08-03T12:05:52.699Z,47.62
2022-08-03T12:06:51.194Z,47.88
2022-08-03T12:08:03.256Z,48.37
2022-08-03T12:08:52.081Z,48.89
2022-08-03T12:09:51.059Z,49.34
2022-08-03T12:10:51.069Z,49.60
2022-08-03T12:11:51.105Z,49.31
2022-08-03T12:12:52.083Z,48.89
2022-08-03T12:14:44.046Z,48.98
2022-08-03T12:14:52.476Z,49.19
2022-08-03T12:15:51.017Z,49.10
2022-08-03T12:16:51.030Z,49.18
2022-08-03T12:17:53.720Z,49.28
2022-08-03T12:18:52.010Z,49.56
2022-08-03T12:19:50.992Z,49.83
2022-08-03T12:20:51.001Z,49.83
2022-08-03T12:21:56.771Z,49.36
2022-08-03T12:22:51.949Z,48.55
2022-08-03T12:23:50.960Z,47.76
2022-08-03T12:24:50.944Z,46.97
2022-08-03T12:25:50.922Z,46.35
2022-08-03T12:26:59.032Z,45.78
2022-08-03T12:27:51.893Z,46.43
2022-08-03T12:28:50.884Z,47.21
2022-08-03T12:29:58.165Z,47.72
2022-08-03T12:30:51.903Z,47.98
2022-08-03T12:31:50.863Z,48.20
2022-08-03T12:32:50.870Z,48.18
2022-08-03T12:33:50.864Z,48.41
2022-08-03T12:34:50.843Z,48.70
2022-08-03T12:35:52.097Z,48.83
2022-08-03T12:36:50.798Z,49.00
2022-08-03T12:37:50.804Z,49.21
2022-08-03T12:38:50.814Z,49.34
2022-08-03T12:40:02.347Z,49.52
2022-08-03T12:40:51.795Z,49.41
2022-08-03T12:41:50.783Z,49.50
2022-08-03T12:42:50.776Z,49.55
2022-08-03T12:43:50.774Z,49.63
2022-08-03T12:44:50.765Z,49.81
2022-08-03T12:45:51.756Z,49.93
2022-08-03T12:46:50.775Z,50.05
2022-08-03T12:47:50.757Z,50.20
2022-08-03T12:48:50.756Z,50.45
2022-08-03T12:49:50.746Z,50.63
2022-08-03T12:50:53.626Z,50.74
2022-08-03T12:51:50.696Z,50.83
2022-08-03T12:52:50.697Z,50.89